sensor_id;sensor_type;location;lat;lon;timestamp;temperature;humidity
11474;DHT22;5793;52.238;13.438;2023-07-31T00:02:08;14.50;99.90
11474;DHT22;5793;52.238;13.438;2023-07-31T00:04:36;14.40;99.90
11474;DHT22;5793;52.238;13.438;2023-07-31T00:07:04;14.30;99.90
11474;DHT22;5793;52.238;13.438;2023-07-31T00:09:33;14.30;99.90
11474;DHT22;5793;52.238;13.438;2023-07-31T00:12:02;14.30;99.90
11474;DHT22;5793;52.238;13.438;2023-07-31T00:14:30;14.10;99.90
11474;DHT22;5793;52.238;13.438;2023-07-31T00:16:58;14.10;99.90
11474;DHT22;5793;52.238;13.438;2023-07-31T00:19:26;14.00;99.90
11474;DHT22;5793;52.238;13.438;2023-07-31T00:21:53;14.00;99.90
11474;DHT22;5793;52.238;13.438;2023-07-31T00:24:21;13.80;99.90
11474;DHT22;5793;52.238;13.438;2023-07-31T00:26:49;13.90;99.90
11474;DHT22;5793;52.238;13.438;2023-07-31T00:29:18;13.90;99.90
11474;DHT22;5793;52.238;13.438;2023-07-31T00:31:46;13.90;99.90
11474;DHT22;5793;52.238;13.438;2023-07-31T00:34:14;13.90;99.90
11474;DHT22;5793;52.238;13.438;2023-07-31T00:36:42;13.90;99.90
11474;DHT22;5793;52.238;13.438;2023-07-31T00:39:09;13.90;99.90
11474;DHT22;5793;52.238;13.438;2023-07-31T00:41:37;13.80;99.90
11474;DHT22;5793;52.238;13.438;2023-07-31T00:44:05;13.80;99.90
11474;DHT22;5793;52.238;13.438;2023-07-31T00:46:34;13.80;99.90
11474;DHT22;5793;52.238;13.438;2023-07-31T00:49:03;13.80;99.90
11474;DHT22;5793;52.238;13.438;2023-07-31T00:51:31;14.00;99.90
11474;DHT22;5793;52.238;13.438;2023-07-31T00:54:00;14.10;99.90
11474;DHT22;5793;52.238;13.438;2023-07-31T00:56:28;14.30;99.90
11474;DHT22;5793;52.238;13.438;2023-07-31T00:58:56;14.40;99.90
11474;DHT22;5793;52.238;13.438;2023-07-31T01:01:24;14.60;99.90
11474;DHT22;5793;52.238;13.438;2023-07-31T01:03:54;14.70;99.90
11474;DHT22;5793;52.238;13.438;2023-07-31T01:06:27;14.50;99.90
11474;DHT22;5793;52.238;13.438;2023-07-31T01:09:04;14.50;99.90
11474;DHT22;5793;52.238;13.438;2023-07-31T01:11:42;14.50;99.90
11474;DHT22;5793;52.238;13.438;2023-07-31T01:14:10;14.40;99.90
11474;DHT22;5793;52.238;13.438;2023-07-31T01:16:38;14.40;99.90
11474;DHT22;5793;52.238;13.438;2023-07-31T01:19:09;14.40;99.90
11474;DHT22;5793;52.238;13.438;2023-07-31T01:21:53;14.30;99.90
11474;DHT22;5793;52.238;13.438;2023-07-31T01:24:29;14.40;99.90
11474;DHT22;5793;52.238;13.438;2023-07-31T01:27:06;14.60;99.90
11474;DHT22;5793;52.238;13.438;2023-07-31T01:29:41;14.60;99.90
11474;DHT22;5793;52.238;13.438;2023-07-31T01:32:11;14.60;99.90
11474;DHT22;5793;52.238;13.438;2023-07-31T01:34:39;14.60;99.90
11474;DHT22;5793;52.238;13.438;2023-07-31T01:37:10;14.70;99.90
11474;DHT22;5793;52.238;13.438;2023-07-31T01:39:38;14.70;99.90
11474;DHT22;5793;52.238;13.438;2023-07-31T01:42:07;14.60;99.90
11474;DHT22;5793;52.238;13.438;2023-07-31T01:44:35;14.60;99.90
11474;DHT22;5793;52.238;13.438;2023-07-31T01:47:03;14.60;99.90
11474;DHT22;5793;52.238;13.438;2023-07-31T01:49:32;14.60;99.90
11474;DHT22;5793;52.238;13.438;2023-07-31T01:52:00;14.60;99.90
11474;DHT22;5793;52.238;13.438;2023-07-31T01:54:27;14.80;99.90
11474;DHT22;5793;52.238;13.438;2023-07-31T01:56:55;14.80;99.90
11474;DHT22;5793;52.238;13.438;2023-07-31T01:59:25;14.80;99.90
11474;DHT22;5793;52.238;13.438;2023-07-31T02:01:55;14.90;99.90
11474;DHT22;5793;52.238;13.438;2023-07-31T02:04:22;15.00;99.90
11474;DHT22;5793;52.238;13.438;2023-07-31T02:06:50;14.90;99.90
11474;DHT22;5793;52.238;13.438;2023-07-31T02:09:18;15.00;99.90
11474;DHT22;5793;52.238;13.438;2023-07-31T02:11:46;15.10;99.90
11474;DHT22;5793;52.238;13.438;2023-07-31T02:14:14;15.00;99.90
11474;DHT22;5793;52.238;13.438;2023-07-31T02:16:43;15.10;99.90
11474;DHT22;5793;52.238;13.438;2023-07-31T02:19:11;15.10;99.90
11474;DHT22;5793;52.238;13.438;2023-07-31T02:21:39;15.20;99.90
11474;DHT22;5793;52.238;13.438;2023-07-31T02:24:07;15.20;99.90
11474;DHT22;5793;52.238;13.438;2023-07-31T02:26:35;15.20;99.90
11474;DHT22;5793;52.238;13.438;2023-07-31T02:29:03;15.30;99.90
11474;DHT22;5793;52.238;13.438;2023-07-31T02:31:31;15.20;99.90
11474;DHT22;5793;52.238;13.438;2023-07-31T02:34:00;15.30;99.90
11474;DHT22;5793;52.238;13.438;2023-07-31T02:36:28;15.40;99.90
11474;DHT22;5793;52.238;13.438;2023-07-31T02:38:58;15.40;99.90
11474;DHT22;5793;52.238;13.438;2023-07-31T02:41:26;15.40;99.90
11474;DHT22;5793;52.238;13.438;2023-07-31T02:43:54;15.30;99.90
11474;DHT22;5793;52.238;13.438;2023-07-31T02:46:21;15.30;99.90
11474;DHT22;5793;52.238;13.438;2023-07-31T02:48:51;15.30;99.90
11474;DHT22;5793;52.238;13.438;2023-07-31T02:51:20;15.30;99.90
11474;DHT22;5793;52.238;13.438;2023-07-31T02:53:48;15.30;99.90
11474;DHT22;5793;52.238;13.438;2023-07-31T02:56:19;15.30;99.90
11474;DHT22;5793;52.238;13.438;2023-07-31T02:58:47;15.30;99.90
11474;DHT22;5793;52.238;13.438;2023-07-31T03:01:15;15.30;99.90
11474;DHT22;5793;52.238;13.438;2023-07-31T03:03:43;15.30;99.90
11474;DHT22;5793;52.238;13.438;2023-07-31T03:06:11;15.30;99.90
11474;DHT22;5793;52.238;13.438;2023-07-31T03:08:42;15.30;99.90
11474;DHT22;5793;52.238;13.438;2023-07-31T03:11:10;15.40;99.90
11474;DHT22;5793;52.238;13.438;2023-07-31T03:13:38;15.40;99.90
11474;DHT22;5793;52.238;13.438;2023-07-31T03:16:05;15.40;99.90
11474;DHT22;5793;52.238;13.438;2023-07-31T03:18:33;15.40;99.90
11474;DHT22;5793;52.238;13.438;2023-07-31T03:21:01;15.40;99.90
11474;DHT22;5793;52.238;13.438;2023-07-31T03:23:29;15.50;99.90
11474;DHT22;5793;52.238;13.438;2023-07-31T03:25:59;15.50;99.90
11474;DHT22;5793;52.238;13.438;2023-07-31T03:28:28;15.50;99.90
11474;DHT22;5793;52.238;13.438;2023-07-31T03:30:55;15.40;99.90
11474;DHT22;5793;52.238;13.438;2023-07-31T03:33:23;15.30;99.90
11474;DHT22;5793;52.238;13.438;2023-07-31T03:35:52;15.20;99.90
11474;DHT22;5793;52.238;13.438;2023-07-31T03:38:20;15.30;99.90
11474;DHT22;5793;52.238;13.438;2023-07-31T03:40:48;15.30;99.90
11474;DHT22;5793;52.238;13.438;2023-07-31T03:43:17;15.30;99.90
11474;DHT22;5793;52.238;13.438;2023-07-31T03:45:45;15.20;99.90
11474;DHT22;5793;52.238;13.438;2023-07-31T03:48:14;15.20;99.90
11474;DHT22;5793;52.238;13.438;2023-07-31T03:50:42;15.20;99.90
11474;DHT22;5793;52.238;13.438;2023-07-31T03:53:10;15.20;99.90
11474;DHT22;5793;52.238;13.438;2023-07-31T03:55:38;15.30;99.90
11474;DHT22;5793;52.238;13.438;2023-07-31T03:58:06;15.30;99.90
11474;DHT22;5793;52.238;13.438;2023-07-31T04:00:35;15.40;99.90
11474;DHT22;5793;52.238;13.438;2023-07-31T04:03:03;15.40;99.90
11474;DHT22;5793;52.238;13.438;2023-07-31T04:05:32;15.30;99.90
11474;DHT22;5793;52.238;13.438;2023-07-31T04:08:00;15.40;99.90
11474;DHT22;5793;52.238;13.438;2023-07-31T04:10:28;15.40;99.90
11474;DHT22;5793;52.238;13.438;2023-07-31T04:12:58;15.40;99.90
11474;DHT22;5793;52.238;13.438;2023-07-31T04:15:26;15.40;99.90
11474;DHT22;5793;52.238;13.438;2023-07-31T04:17:55;15.40;99.90
11474;DHT22;5793;52.238;13.438;2023-07-31T04:20:23;15.40;99.90
11474;DHT22;5793;52.238;13.438;2023-07-31T04:22:51;15.40;99.90
11474;DHT22;5793;52.238;13.438;2023-07-31T04:25:21;15.40;99.90
11474;DHT22;5793;52.238;13.438;2023-07-31T04:27:49;15.50;99.90
11474;DHT22;5793;52.238;13.438;2023-07-31T04:30:17;15.60;99.90
11474;DHT22;5793;52.238;13.438;2023-07-31T04:32:45;15.60;99.90
11474;DHT22;5793;52.238;13.438;2023-07-31T04:35:14;15.70;99.90
11474;DHT22;5793;52.238;13.438;2023-07-31T04:37:42;15.70;99.90
11474;DHT22;5793;52.238;13.438;2023-07-31T04:40:11;15.70;99.90
11474;DHT22;5793;52.238;13.438;2023-07-31T04:42:39;15.70;99.90
11474;DHT22;5793;52.238;13.438;2023-07-31T04:45:08;15.60;99.90
11474;DHT22;5793;52.238;13.438;2023-07-31T04:47:37;15.80;99.90
11474;DHT22;5793;52.238;13.438;2023-07-31T04:50:05;15.70;99.90
11474;DHT22;5793;52.238;13.438;2023-07-31T04:52:35;15.80;99.90
11474;DHT22;5793;52.238;13.438;2023-07-31T04:55:03;15.80;99.90
11474;DHT22;5793;52.238;13.438;2023-07-31T04:57:31;15.90;99.90
11474;DHT22;5793;52.238;13.438;2023-07-31T04:59:59;16.00;99.90
11474;DHT22;5793;52.238;13.438;2023-07-31T05:02:27;16.00;99.90
11474;DHT22;5793;52.238;13.438;2023-07-31T05:04:55;16.00;99.90
11474;DHT22;5793;52.238;13.438;2023-07-31T05:07:24;16.00;99.90
11474;DHT22;5793;52.238;13.438;2023-07-31T05:09:53;16.00;99.90
11474;DHT22;5793;52.238;13.438;2023-07-31T05:12:24;16.00;99.90
11474;DHT22;5793;52.238;13.438;2023-07-31T05:14:52;16.00;99.90
11474;DHT22;5793;52.238;13.438;2023-07-31T05:17:20;16.00;99.90
11474;DHT22;5793;52.238;13.438;2023-07-31T05:19:48;16.00;99.90
11474;DHT22;5793;52.238;13.438;2023-07-31T05:22:15;16.00;99.90
11474;DHT22;5793;52.238;13.438;2023-07-31T05:24:45;16.00;99.90
11474;DHT22;5793;52.238;13.438;2023-07-31T05:27:15;16.10;99.90
11474;DHT22;5793;52.238;13.438;2023-07-31T05:29:45;16.00;99.90
11474;DHT22;5793;52.238;13.438;2023-07-31T05:32:13;16.00;99.90
11474;DHT22;5793;52.238;13.438;2023-07-31T05:34:41;15.90;99.90
11474;DHT22;5793;52.238;13.438;2023-07-31T05:37:09;15.90;99.90
11474;DHT22;5793;52.238;13.438;2023-07-31T05:39:37;15.90;99.90
11474;DHT22;5793;52.238;13.438;2023-07-31T05:42:08;16.00;99.90
11474;DHT22;5793;52.238;13.438;2023-07-31T05:44:38;16.00;99.90
11474;DHT22;5793;52.238;13.438;2023-07-31T05:47:06;16.00;99.90
11474;DHT22;5793;52.238;13.438;2023-07-31T05:49:34;16.00;99.90
11474;DHT22;5793;52.238;13.438;2023-07-31T05:52:02;16.10;99.90
11474;DHT22;5793;52.238;13.438;2023-07-31T05:54:32;16.10;99.90
11474;DHT22;5793;52.238;13.438;2023-07-31T05:57:00;16.00;99.90
11474;DHT22;5793;52.238;13.438;2023-07-31T05:59:28;16.00;99.90
11474;DHT22;5793;52.238;13.438;2023-07-31T06:01:59;15.90;99.90
11474;DHT22;5793;52.238;13.438;2023-07-31T06:04:26;15.90;99.90
11474;DHT22;5793;52.238;13.438;2023-07-31T06:06:54;15.90;99.90
11474;DHT22;5793;52.238;13.438;2023-07-31T06:09:22;15.90;99.90
11474;DHT22;5793;52.238;13.438;2023-07-31T06:11:51;15.90;99.90
11474;DHT22;5793;52.238;13.438;2023-07-31T06:14:18;16.00;99.90
11474;DHT22;5793;52.238;13.438;2023-07-31T06:16:46;16.00;99.90
11474;DHT22;5793;52.238;13.438;2023-07-31T06:19:15;16.10;99.90
11474;DHT22;5793;52.238;13.438;2023-07-31T06:21:43;16.30;99.90
11474;DHT22;5793;52.238;13.438;2023-07-31T06:24:11;16.30;99.90
11474;DHT22;5793;52.238;13.438;2023-07-31T06:26:39;16.40;99.90
11474;DHT22;5793;52.238;13.438;2023-07-31T06:29:08;16.50;99.90
11474;DHT22;5793;52.238;13.438;2023-07-31T06:31:36;16.40;99.90
11474;DHT22;5793;52.238;13.438;2023-07-31T06:34:05;16.50;99.90
11474;DHT22;5793;52.238;13.438;2023-07-31T06:36:34;16.50;99.90
11474;DHT22;5793;52.238;13.438;2023-07-31T06:39:02;16.60;99.90
11474;DHT22;5793;52.238;13.438;2023-07-31T06:41:30;16.60;99.90
11474;DHT22;5793;52.238;13.438;2023-07-31T06:43:58;16.60;99.90
11474;DHT22;5793;52.238;13.438;2023-07-31T06:46:26;16.70;99.90
11474;DHT22;5793;52.238;13.438;2023-07-31T06:48:54;16.80;99.90
11474;DHT22;5793;52.238;13.438;2023-07-31T06:51:22;16.80;99.90
11474;DHT22;5793;52.238;13.438;2023-07-31T06:53:51;16.80;99.90
11474;DHT22;5793;52.238;13.438;2023-07-31T06:56:21;16.90;99.90
11474;DHT22;5793;52.238;13.438;2023-07-31T06:58:48;16.90;99.90
11474;DHT22;5793;52.238;13.438;2023-07-31T07:01:16;16.90;99.90
11474;DHT22;5793;52.238;13.438;2023-07-31T07:03:44;16.90;99.90
11474;DHT22;5793;52.238;13.438;2023-07-31T07:06:12;17.00;99.90
11474;DHT22;5793;52.238;13.438;2023-07-31T07:08:40;17.00;99.90
11474;DHT22;5793;52.238;13.438;2023-07-31T07:11:09;17.00;99.90
11474;DHT22;5793;52.238;13.438;2023-07-31T07:13:37;17.00;99.90
11474;DHT22;5793;52.238;13.438;2023-07-31T07:16:05;16.90;99.90
11474;DHT22;5793;52.238;13.438;2023-07-31T07:18:33;17.00;99.90
11474;DHT22;5793;52.238;13.438;2023-07-31T07:21:05;16.90;99.90
11474;DHT22;5793;52.238;13.438;2023-07-31T07:23:32;16.90;99.90
11474;DHT22;5793;52.238;13.438;2023-07-31T07:26:00;17.00;99.90
11474;DHT22;5793;52.238;13.438;2023-07-31T07:28:33;16.90;99.90
11474;DHT22;5793;52.238;13.438;2023-07-31T07:31:01;16.80;99.90
11474;DHT22;5793;52.238;13.438;2023-07-31T07:33:29;16.80;99.90
11474;DHT22;5793;52.238;13.438;2023-07-31T07:36:00;16.80;99.90
11474;DHT22;5793;52.238;13.438;2023-07-31T07:38:28;16.90;99.90
11474;DHT22;5793;52.238;13.438;2023-07-31T07:40:56;16.90;99.90
11474;DHT22;5793;52.238;13.438;2023-07-31T07:43:24;17.00;99.90
11474;DHT22;5793;52.238;13.438;2023-07-31T07:45:53;17.10;99.90
11474;DHT22;5793;52.238;13.438;2023-07-31T07:48:21;17.00;99.90
11474;DHT22;5793;52.238;13.438;2023-07-31T07:50:50;17.00;99.90
11474;DHT22;5793;52.238;13.438;2023-07-31T07:53:18;17.10;99.90
11474;DHT22;5793;52.238;13.438;2023-07-31T07:55:45;17.20;99.90
11474;DHT22;5793;52.238;13.438;2023-07-31T07:58:13;17.30;99.90
11474;DHT22;5793;52.238;13.438;2023-07-31T08:00:41;17.30;99.90
11474;DHT22;5793;52.238;13.438;2023-07-31T08:03:10;17.10;99.90
11474;DHT22;5793;52.238;13.438;2023-07-31T08:05:38;17.00;99.90
11474;DHT22;5793;52.238;13.438;2023-07-31T08:08:06;17.10;99.90
11474;DHT22;5793;52.238;13.438;2023-07-31T08:10:34;17.20;99.90
11474;DHT22;5793;52.238;13.438;2023-07-31T08:13:02;17.40;99.90
11474;DHT22;5793;52.238;13.438;2023-07-31T08:15:29;17.40;99.90
11474;DHT22;5793;52.238;13.438;2023-07-31T08:17:57;17.60;99.90
11474;DHT22;5793;52.238;13.438;2023-07-31T08:20:28;17.70;99.90
11474;DHT22;5793;52.238;13.438;2023-07-31T08:22:55;17.80;99.90
11474;DHT22;5793;52.238;13.438;2023-07-31T08:25:24;18.00;99.90
11474;DHT22;5793;52.238;13.438;2023-07-31T08:27:52;18.00;99.90
11474;DHT22;5793;52.238;13.438;2023-07-31T08:30:20;18.10;99.90
11474;DHT22;5793;52.238;13.438;2023-07-31T08:32:49;18.00;99.90
11474;DHT22;5793;52.238;13.438;2023-07-31T08:35:17;18.20;99.90
11474;DHT22;5793;52.238;13.438;2023-07-31T08:37:47;18.20;99.90
11474;DHT22;5793;52.238;13.438;2023-07-31T08:40:15;18.10;99.90
11474;DHT22;5793;52.238;13.438;2023-07-31T08:42:46;18.10;99.90
11474;DHT22;5793;52.238;13.438;2023-07-31T08:45:15;18.10;99.90
11474;DHT22;5793;52.238;13.438;2023-07-31T08:47:44;18.00;99.90
11474;DHT22;5793;52.238;13.438;2023-07-31T08:50:15;18.00;99.90
11474;DHT22;5793;52.238;13.438;2023-07-31T08:52:46;17.90;99.90
11474;DHT22;5793;52.238;13.438;2023-07-31T08:55:16;17.70;99.90
11474;DHT22;5793;52.238;13.438;2023-07-31T08:57:45;17.50;99.90
11474;DHT22;5793;52.238;13.438;2023-07-31T09:00:14;17.40;99.90
11474;DHT22;5793;52.238;13.438;2023-07-31T09:02:46;17.20;99.90
11474;DHT22;5793;52.238;13.438;2023-07-31T09:05:17;17.10;99.90
11474;DHT22;5793;52.238;13.438;2023-07-31T09:07:47;17.00;99.90
11474;DHT22;5793;52.238;13.438;2023-07-31T09:10:17;16.80;99.90
11474;DHT22;5793;52.238;13.438;2023-07-31T09:12:46;16.80;99.90
11474;DHT22;5793;52.238;13.438;2023-07-31T09:15:15;16.80;99.90
11474;DHT22;5793;52.238;13.438;2023-07-31T09:18:02;16.90;99.90
11474;DHT22;5793;52.238;13.438;2023-07-31T09:20:32;17.10;99.90
11474;DHT22;5793;52.238;13.438;2023-07-31T09:23:06;17.30;99.90
11474;DHT22;5793;52.238;13.438;2023-07-31T09:25:37;17.50;99.90
11474;DHT22;5793;52.238;13.438;2023-07-31T09:28:06;17.80;99.90
11474;DHT22;5793;52.238;13.438;2023-07-31T09:30:46;18.20;99.90
11474;DHT22;5793;52.238;13.438;2023-07-31T09:33:15;18.70;99.90
11474;DHT22;5793;52.238;13.438;2023-07-31T09:35:43;19.10;99.90
11474;DHT22;5793;52.238;13.438;2023-07-31T09:38:12;19.30;99.90
11474;DHT22;5793;52.238;13.438;2023-07-31T09:40:42;19.70;99.90
11474;DHT22;5793;52.238;13.438;2023-07-31T09:43:16;19.80;99.90
11474;DHT22;5793;52.238;13.438;2023-07-31T09:45:45;19.80;99.90
11474;DHT22;5793;52.238;13.438;2023-07-31T09:48:14;19.90;99.90
11474;DHT22;5793;52.238;13.438;2023-07-31T09:50:45;19.80;99.90
11474;DHT22;5793;52.238;13.438;2023-07-31T09:53:13;19.70;99.90
11474;DHT22;5793;52.238;13.438;2023-07-31T09:55:43;19.90;99.90
11474;DHT22;5793;52.238;13.438;2023-07-31T09:58:12;19.90;99.90
11474;DHT22;5793;52.238;13.438;2023-07-31T10:00:40;19.70;99.90
11474;DHT22;5793;52.238;13.438;2023-07-31T10:03:09;19.50;99.90
11474;DHT22;5793;52.238;13.438;2023-07-31T10:05:42;19.30;99.90
11474;DHT22;5793;52.238;13.438;2023-07-31T10:08:13;19.10;99.90
11474;DHT22;5793;52.238;13.438;2023-07-31T10:10:44;19.00;99.90
11474;DHT22;5793;52.238;13.438;2023-07-31T10:13:12;19.00;99.90
11474;DHT22;5793;52.238;13.438;2023-07-31T10:15:44;19.00;99.90
11474;DHT22;5793;52.238;13.438;2023-07-31T10:18:13;19.00;99.90
11474;DHT22;5793;52.238;13.438;2023-07-31T10:20:42;18.80;99.90
11474;DHT22;5793;52.238;13.438;2023-07-31T10:23:10;18.70;99.90
11474;DHT22;5793;52.238;13.438;2023-07-31T10:25:40;18.60;99.90
11474;DHT22;5793;52.238;13.438;2023-07-31T10:28:10;18.60;99.90
11474;DHT22;5793;52.238;13.438;2023-07-31T10:30:39;18.60;99.90
11474;DHT22;5793;52.238;13.438;2023-07-31T10:33:07;18.80;99.90
11474;DHT22;5793;52.238;13.438;2023-07-31T10:35:36;19.00;99.90
11474;DHT22;5793;52.238;13.438;2023-07-31T10:38:10;19.60;99.90
11474;DHT22;5793;52.238;13.438;2023-07-31T10:40:39;20.70;99.90
11474;DHT22;5793;52.238;13.438;2023-07-31T10:43:08;21.40;99.90
11474;DHT22;5793;52.238;13.438;2023-07-31T10:45:39;21.90;99.90
11474;DHT22;5793;52.238;13.438;2023-07-31T10:48:12;22.10;99.90
11474;DHT22;5793;52.238;13.438;2023-07-31T10:50:47;22.20;99.90
11474;DHT22;5793;52.238;13.438;2023-07-31T10:53:22;22.00;99.90
11474;DHT22;5793;52.238;13.438;2023-07-31T10:55:50;21.50;99.90
11474;DHT22;5793;52.238;13.438;2023-07-31T10:58:21;21.30;99.90
11474;DHT22;5793;52.238;13.438;2023-07-31T11:00:49;21.20;99.90
11474;DHT22;5793;52.238;13.438;2023-07-31T11:03:19;21.50;99.90
11474;DHT22;5793;52.238;13.438;2023-07-31T11:05:51;21.70;99.90
11474;DHT22;5793;52.238;13.438;2023-07-31T11:08:21;21.70;99.90
11474;DHT22;5793;52.238;13.438;2023-07-31T11:10:51;21.40;99.90
11474;DHT22;5793;52.238;13.438;2023-07-31T11:13:34;21.20;99.90
11474;DHT22;5793;52.238;13.438;2023-07-31T11:16:07;21.10;99.90
11474;DHT22;5793;52.238;13.438;2023-07-31T11:18:37;21.20;99.90
11474;DHT22;5793;52.238;13.438;2023-07-31T11:21:05;21.20;99.90
11474;DHT22;5793;52.238;13.438;2023-07-31T11:23:33;20.90;99.90
11474;DHT22;5793;52.238;13.438;2023-07-31T11:26:05;20.80;99.90
11474;DHT22;5793;52.238;13.438;2023-07-31T11:28:35;20.80;99.90
11474;DHT22;5793;52.238;13.438;2023-07-31T11:31:03;20.60;99.90
11474;DHT22;5793;52.238;13.438;2023-07-31T11:33:33;20.50;99.90
11474;DHT22;5793;52.238;13.438;2023-07-31T11:36:01;20.40;99.90
11474;DHT22;5793;52.238;13.438;2023-07-31T11:38:30;20.20;99.90
11474;DHT22;5793;52.238;13.438;2023-07-31T11:41:00;20.00;99.90
11474;DHT22;5793;52.238;13.438;2023-07-31T11:43:30;19.80;99.90
11474;DHT22;5793;52.238;13.438;2023-07-31T11:46:02;19.60;99.90
11474;DHT22;5793;52.238;13.438;2023-07-31T11:48:31;19.30;99.90
11474;DHT22;5793;52.238;13.438;2023-07-31T11:51:03;19.30;99.90
11474;DHT22;5793;52.238;13.438;2023-07-31T11:53:35;19.50;99.90
11474;DHT22;5793;52.238;13.438;2023-07-31T11:56:06;19.80;99.90
11474;DHT22;5793;52.238;13.438;2023-07-31T11:58:35;20.00;99.90
11474;DHT22;5793;52.238;13.438;2023-07-31T12:01:05;20.10;99.90
11474;DHT22;5793;52.238;13.438;2023-07-31T12:03:34;20.10;99.90
11474;DHT22;5793;52.238;13.438;2023-07-31T12:06:02;20.10;99.90
11474;DHT22;5793;52.238;13.438;2023-07-31T12:08:31;20.10;99.90
11474;DHT22;5793;52.238;13.438;2023-07-31T12:11:03;20.30;99.90
11474;DHT22;5793;52.238;13.438;2023-07-31T12:13:32;20.50;99.90
11474;DHT22;5793;52.238;13.438;2023-07-31T12:16:05;20.60;99.90
11474;DHT22;5793;52.238;13.438;2023-07-31T12:18:34;20.60;99.90
11474;DHT22;5793;52.238;13.438;2023-07-31T12:21:06;20.70;99.90
11474;DHT22;5793;52.238;13.438;2023-07-31T12:23:36;20.60;99.90
11474;DHT22;5793;52.238;13.438;2023-07-31T12:26:06;20.50;99.90
11474;DHT22;5793;52.238;13.438;2023-07-31T12:28:37;20.40;99.90
11474;DHT22;5793;52.238;13.438;2023-07-31T12:31:09;20.60;99.90
11474;DHT22;5793;52.238;13.438;2023-07-31T12:33:39;20.70;99.90
11474;DHT22;5793;52.238;13.438;2023-07-31T12:36:08;20.70;99.90
11474;DHT22;5793;52.238;13.438;2023-07-31T12:38:37;20.70;99.90
11474;DHT22;5793;52.238;13.438;2023-07-31T12:41:05;20.90;99.90
11474;DHT22;5793;52.238;13.438;2023-07-31T12:43:34;21.00;99.90
11474;DHT22;5793;52.238;13.438;2023-07-31T12:46:02;20.90;99.90
11474;DHT22;5793;52.238;13.438;2023-07-31T12:48:38;20.90;99.90
11474;DHT22;5793;52.238;13.438;2023-07-31T12:51:06;20.80;99.90
11474;DHT22;5793;52.238;13.438;2023-07-31T12:53:37;20.90;99.90
11474;DHT22;5793;52.238;13.438;2023-07-31T12:56:05;21.00;99.90
11474;DHT22;5793;52.238;13.438;2023-07-31T12:58:33;21.10;99.90
11474;DHT22;5793;52.238;13.438;2023-07-31T13:01:01;21.30;99.90
11474;DHT22;5793;52.238;13.438;2023-07-31T13:03:29;21.40;99.90
11474;DHT22;5793;52.238;13.438;2023-07-31T13:06:01;21.40;99.90
11474;DHT22;5793;52.238;13.438;2023-07-31T13:08:30;21.50;99.90
11474;DHT22;5793;52.238;13.438;2023-07-31T13:10:59;21.30;99.90
11474;DHT22;5793;52.238;13.438;2023-07-31T13:13:27;21.20;99.90
11474;DHT22;5793;52.238;13.438;2023-07-31T13:15:56;21.10;99.90
11474;DHT22;5793;52.238;13.438;2023-07-31T13:18:25;21.10;99.90
11474;DHT22;5793;52.238;13.438;2023-07-31T13:20:52;21.20;99.90
11474;DHT22;5793;52.238;13.438;2023-07-31T13:23:22;21.10;99.90
11474;DHT22;5793;52.238;13.438;2023-07-31T13:25:49;21.10;99.90
11474;DHT22;5793;52.238;13.438;2023-07-31T13:28:17;20.90;99.90
11474;DHT22;5793;52.238;13.438;2023-07-31T13:30:45;20.80;99.90
11474;DHT22;5793;52.238;13.438;2023-07-31T13:33:13;20.70;99.90
11474;DHT22;5793;52.238;13.438;2023-07-31T13:36:01;20.70;99.90
11474;DHT22;5793;52.238;13.438;2023-07-31T13:38:32;21.10;99.90
11474;DHT22;5793;52.238;13.438;2023-07-31T13:41:00;21.40;99.90
11474;DHT22;5793;52.238;13.438;2023-07-31T13:43:28;21.50;99.90
11474;DHT22;5793;52.238;13.438;2023-07-31T13:45:57;21.60;99.90
11474;DHT22;5793;52.238;13.438;2023-07-31T13:48:30;21.80;99.90
11474;DHT22;5793;52.238;13.438;2023-07-31T13:50:58;22.00;99.90
11474;DHT22;5793;52.238;13.438;2023-07-31T13:53:27;22.00;99.90
11474;DHT22;5793;52.238;13.438;2023-07-31T13:55:56;22.10;99.90
11474;DHT22;5793;52.238;13.438;2023-07-31T13:58:24;22.20;99.90
11474;DHT22;5793;52.238;13.438;2023-07-31T14:00:52;22.40;99.90
11474;DHT22;5793;52.238;13.438;2023-07-31T14:03:20;22.30;99.90
11474;DHT22;5793;52.238;13.438;2023-07-31T14:05:51;22.40;99.90
11474;DHT22;5793;52.238;13.438;2023-07-31T14:08:20;22.50;99.90
11474;DHT22;5793;52.238;13.438;2023-07-31T14:10:48;22.80;99.90
11474;DHT22;5793;52.238;13.438;2023-07-31T14:13:17;22.60;99.90
11474;DHT22;5793;52.238;13.438;2023-07-31T14:15:49;22.60;99.90
11474;DHT22;5793;52.238;13.438;2023-07-31T14:18:18;22.50;99.90
11474;DHT22;5793;52.238;13.438;2023-07-31T14:20:51;22.40;99.90
11474;DHT22;5793;52.238;13.438;2023-07-31T14:23:21;22.30;99.90
11474;DHT22;5793;52.238;13.438;2023-07-31T14:25:50;22.30;99.90
11474;DHT22;5793;52.238;13.438;2023-07-31T14:28:20;22.30;99.90
11474;DHT22;5793;52.238;13.438;2023-07-31T14:30:48;22.30;99.90
11474;DHT22;5793;52.238;13.438;2023-07-31T14:33:16;22.50;99.90
11474;DHT22;5793;52.238;13.438;2023-07-31T14:35:43;22.40;99.90
11474;DHT22;5793;52.238;13.438;2023-07-31T14:38:11;22.60;99.90
11474;DHT22;5793;52.238;13.438;2023-07-31T14:40:39;22.70;99.90
11474;DHT22;5793;52.238;13.438;2023-07-31T14:43:07;22.70;99.90
11474;DHT22;5793;52.238;13.438;2023-07-31T14:45:37;22.60;99.90
11474;DHT22;5793;52.238;13.438;2023-07-31T14:48:05;22.50;99.90
11474;DHT22;5793;52.238;13.438;2023-07-31T14:50:33;22.40;99.90
11474;DHT22;5793;52.238;13.438;2023-07-31T14:53:01;22.50;99.90
11474;DHT22;5793;52.238;13.438;2023-07-31T14:55:28;22.60;99.90
11474;DHT22;5793;52.238;13.438;2023-07-31T14:57:58;22.60;99.90
11474;DHT22;5793;52.238;13.438;2023-07-31T15:00:25;22.70;99.90
11474;DHT22;5793;52.238;13.438;2023-07-31T15:02:55;22.50;99.90
11474;DHT22;5793;52.238;13.438;2023-07-31T15:05:23;22.30;99.90
11474;DHT22;5793;52.238;13.438;2023-07-31T15:07:51;22.10;99.90
11474;DHT22;5793;52.238;13.438;2023-07-31T15:10:19;22.10;99.90
11474;DHT22;5793;52.238;13.438;2023-07-31T15:12:47;22.10;99.90
11474;DHT22;5793;52.238;13.438;2023-07-31T15:15:15;22.20;99.90
11474;DHT22;5793;52.238;13.438;2023-07-31T15:17:44;22.10;99.90
11474;DHT22;5793;52.238;13.438;2023-07-31T15:20:14;22.00;99.90
11474;DHT22;5793;52.238;13.438;2023-07-31T15:22:42;22.20;99.90
11474;DHT22;5793;52.238;13.438;2023-07-31T15:25:10;22.30;99.90
11474;DHT22;5793;52.238;13.438;2023-07-31T15:27:38;22.40;99.90
11474;DHT22;5793;52.238;13.438;2023-07-31T15:30:07;22.30;99.90
11474;DHT22;5793;52.238;13.438;2023-07-31T15:32:37;22.30;99.90
11474;DHT22;5793;52.238;13.438;2023-07-31T15:35:06;22.30;99.90
11474;DHT22;5793;52.238;13.438;2023-07-31T15:37:35;22.50;99.90
11474;DHT22;5793;52.238;13.438;2023-07-31T15:40:06;22.50;99.90
11474;DHT22;5793;52.238;13.438;2023-07-31T15:42:34;22.50;99.90